createdAt,value
2024-03-04T00:00:42.894Z,47.40
2024-03-04T00:01:43.444Z,46.60
2024-03-04T00:02:43.851Z,46.70
2024-03-04T00:03:44.715Z,46.30
2024-03-04T00:04:45.707Z,47.40
2024-03-04T00:05:46.116Z,46.10
2024-03-04T00:06:46.972Z,47.60
2024-03-04T00:07:47.860Z,47.20
2024-03-04T00:08:48.734Z,47.90
2024-03-04T00:09:49.624Z,48.60
2024-03-04T00:10:50.526Z,47.40
2024-03-04T00:11:51.409Z,47.20
2024-03-04T00:12:52.283Z,47.60
2024-03-04T00:13:53.170Z,48.80
2024-03-04T00:14:54.063Z,47.90
2024-03-04T00:15:55.054Z,47.80
2024-03-04T00:16:55.439Z,48.60
2024-03-04T00:17:56.362Z,48.30
2024-03-04T00:18:57.234Z,46.80
2024-03-04T00:19:58.122Z,47.60
2024-03-04T00:20:59.031Z,46.20
2024-03-04T00:21:59.920Z,50.20
2024-03-04T00:23:00.781Z,50.40
2024-03-04T00:24:01.662Z,49.10
2024-03-04T00:25:02.609Z,47.20
2024-03-04T00:26:03.506Z,50.10
2024-03-04T00:27:04.388Z,50.20
2024-03-04T00:28:05.324Z,49.80
2024-03-04T00:29:06.171Z,49.30
2024-03-04T00:30:07.048Z,48.60
2024-03-04T00:31:07.992Z,47.80
2024-03-04T00:32:08.865Z,50.10
2024-03-04T00:33:09.779Z,50.80
2024-03-04T00:34:10.662Z,49.20
2024-03-04T00:35:11.517Z,48.60
2024-03-04T00:36:12.439Z,48.60
2024-03-04T00:37:13.324Z,49.50
2024-03-04T00:38:14.229Z,48.00
2024-03-04T00:39:15.127Z,47.10
2024-03-04T00:40:16.097Z,49.30
2024-03-04T00:41:16.980Z,49.40
2024-03-04T00:42:17.858Z,50.30
2024-03-04T00:43:18.768Z,49.60
2024-03-04T00:44:19.621Z,49.30
2024-03-04T00:45:20.504Z,48.90
2024-03-04T00:46:21.437Z,47.90
2024-03-04T00:47:22.294Z,49.60
2024-03-04T00:48:23.179Z,49.40
2024-03-04T00:49:24.091Z,48.60
2024-03-04T00:50:24.952Z,48.40
2024-03-04T00:51:25.882Z,50.00
2024-03-04T00:52:26.784Z,49.20
2024-03-04T00:53:27.686Z,48.90
2024-03-04T00:54:28.579Z,49.50
2024-03-04T00:55:29.499Z,48.40
2024-03-04T00:56:30.393Z,49.50
2024-03-04T00:57:31.274Z,49.60
2024-03-04T00:58:32.259Z,49.20
2024-03-04T00:59:32.667Z,49.90
2024-03-04T01:00:33.621Z,49.50
2024-03-04T01:01:34.540Z,50.70
2024-03-04T01:02:35.403Z,50.90
2024-03-04T01:03:36.286Z,51.10
2024-03-04T01:04:37.283Z,50.20
2024-03-04T01:05:37.740Z,50.00
2024-03-04T01:06:38.761Z,51.70
2024-03-04T01:07:39.660Z,51.80
2024-03-04T01:08:40.510Z,51.60
2024-03-04T01:09:41.395Z,53.40
2024-03-04T01:10:42.335Z,51.30
2024-03-04T01:11:43.303Z,50.40
2024-03-04T01:12:44.182Z,51.10
2024-03-04T01:13:45.087Z,51.00
2024-03-04T01:14:45.957Z,51.30
2024-03-04T01:15:46.830Z,51.80
2024-03-04T01:16:47.738Z,51.20
2024-03-04T01:17:48.626Z,51.90
2024-03-04T01:18:49.504Z,52.90
2024-03-04T01:19:50.439Z,51.00
2024-03-04T01:20:51.340Z,50.80
2024-03-04T01:21:52.270Z,51.00
2024-03-04T01:22:53.117Z,51.30
2024-03-04T01:23:54.012Z,50.80
2024-03-04T01:24:54.897Z,50.90
2024-03-04T01:25:55.759Z,50.90
2024-03-04T01:26:56.671Z,50.60
2024-03-04T01:27:57.579Z,50.90
2024-03-04T01:28:58.441Z,48.60
2024-03-04T01:29:59.336Z,47.70
2024-03-04T01:31:00.248Z,49.80
2024-03-04T01:32:01.135Z,49.00
2024-03-04T01:33:02.035Z,53.70
2024-03-04T01:34:02.944Z,53.50
2024-03-04T01:35:03.796Z,55.00
2024-03-04T01:36:04.684Z,54.30
2024-03-04T01:37:05.615Z,52.70
2024-03-04T01:38:06.461Z,53.20
2024-03-04T01:39:07.346Z,51.30
2024-03-04T01:40:08.240Z,48.90
2024-03-04T01:41:09.127Z,48.10
2024-03-04T01:42:10.010Z,49.40
2024-03-04T01:43:10.932Z,49.10
2024-03-04T01:44:11.797Z,48.80
2024-03-04T01:45:12.679Z,49.30
2024-03-04T01:46:13.608Z,53.00
2024-03-04T01:47:14.480Z,51.10
2024-03-04T01:48:15.364Z,53.10
2024-03-04T01:49:16.346Z,53.60
2024-03-04T01:50:17.196Z,53.40
2024-03-04T01:51:18.082Z,53.80
2024-03-04T01:52:19.163Z,52.60
2024-03-04T01:53:19.556Z,55.00
2024-03-04T01:54:20.430Z,54.10
2024-03-04T01:55:21.413Z,54.60
2024-03-04T01:56:22.272Z,54.60
2024-03-04T01:57:23.179Z,53.20
2024-03-04T01:58:24.096Z,51.60
2024-03-04T01:59:24.955Z,59.00
2024-03-04T02:02:09.143Z,56.60
2024-03-04T02:03:09.611Z,54.80
2024-03-04T02:04:10.541Z,50.40
2024-03-04T02:05:11.382Z,52.00
2024-03-04T02:06:12.269Z,52.10
2024-03-04T02:07:13.164Z,52.00
2024-03-04T02:08:14.089Z,50.90
2024-03-04T02:09:14.933Z,51.10
2024-03-04T02:10:15.843Z,51.20
2024-03-04T02:11:16.706Z,52.30
2024-03-04T02:12:17.602Z,51.70
2024-03-04T02:13:18.496Z,51.90
2024-03-04T02:14:19.365Z,50.90
2024-03-04T02:15:20.247Z,52.10
2024-03-04T02:16:21.169Z,51.10
2024-03-04T02:18:57.045Z,47.90
2024-03-04T02:19:57.909Z,49.80
2024-03-04T02:20:58.802Z,51.20
2024-03-04T02:21:59.770Z,50.00
2024-03-04T02:23:00.606Z,50.00
2024-03-04T02:24:01.533Z,51.30
2024-03-04T02:25:02.442Z,53.10
2024-03-04T02:26:03.279Z,52.60
2024-03-04T02:27:04.155Z,51.50
2024-03-04T02:28:05.088Z,48.40
2024-03-04T02:29:05.952Z,46.70
2024-03-04T02:30:06.827Z,48.00
2024-03-04T02:31:07.746Z,48.10
2024-03-04T02:32:08.598Z,47.80
2024-03-04T02:33:09.517Z,47.90
2024-03-04T02:34:10.474Z,48.80
2024-03-04T02:35:11.359Z,48.70
2024-03-04T02:36:12.246Z,47.70
2024-03-04T02:37:13.157Z,48.80
2024-03-04T02:38:14.002Z,50.30
2024-03-04T02:39:14.928Z,47.20
2024-03-04T02:40:15.866Z,46.80
2024-03-04T02:41:16.731Z,46.00
2024-03-04T02:42:17.609Z,47.80
2024-03-04T02:43:18.555Z,46.50
2024-03-04T02:44:19.486Z,47.80
2024-03-04T02:45:20.389Z,47.70
2024-03-04T02:46:21.269Z,46.90
2024-03-04T02:47:22.131Z,46.50
2024-03-04T02:48:23.010Z,46.00
2024-03-04T02:49:23.993Z,45.90
2024-03-04T02:50:24.854Z,44.00
2024-03-04T02:51:25.749Z,45.90
2024-03-04T02:52:26.653Z,46.10
2024-03-04T02:53:27.507Z,47.50
2024-03-04T02:54:28.421Z,48.40
2024-03-04T02:55:29.314Z,48.90
2024-03-04T02:56:30.171Z,48.50
2024-03-04T02:57:31.044Z,49.60
2024-03-04T02:58:32.130Z,49.20
2024-03-04T02:59:33.018Z,49.70
2024-03-04T03:00:33.885Z,48.30
2024-03-04T03:01:34.878Z,50.60
2024-03-04T03:02:35.268Z,50.70
2024-03-04T03:03:36.134Z,49.50
2024-03-04T03:04:37.058Z,50.40
2024-03-04T03:05:37.908Z,50.50
2024-03-04T03:06:38.788Z,49.90
2024-03-04T03:07:39.741Z,49.10
2024-03-04T03:08:40.598Z,49.50
2024-03-04T03:09:41.646Z,49.40
2024-03-04T03:10:42.044Z,49.30
2024-03-04T03:11:42.900Z,48.70
2024-03-04T03:12:43.768Z,49.60
2024-03-04T03:13:44.705Z,50.50
2024-03-04T03:14:45.555Z,49.80
2024-03-04T03:15:46.446Z,51.30
2024-03-04T03:16:47.312Z,50.60
2024-03-04T03:17:48.218Z,51.50
2024-03-04T03:18:49.081Z,51.20
2024-03-04T03:19:49.979Z,53.10
2024-03-04T03:20:50.860Z,53.00
2024-03-04T03:21:51.733Z,53.10
2024-03-04T03:22:52.620Z,51.70
2024-03-04T03:23:53.493Z,54.20
2024-03-04T03:24:54.413Z,53.90
2024-03-04T03:25:55.269Z,54.10
2024-03-04T03:26:56.147Z,53.70
2024-03-04T03:27:57.071Z,54.40
2024-03-04T03:28:57.921Z,54.40
2024-03-04T03:29:58.821Z,54.40
2024-03-04T03:30:59.739Z,53.20
2024-03-04T03:32:00.601Z,53.10
2024-03-04T03:33:01.514Z,53.00
2024-03-04T03:34:02.430Z,54.30
2024-03-04T03:35:03.286Z,53.80
2024-03-04T03:36:04.164Z,52.10
2024-03-04T03:37:05.088Z,54.40
2024-03-04T03:38:05.914Z,54.30
2024-03-04T03:39:06.792Z,54.00
2024-03-04T03:40:07.723Z,53.70
2024-03-04T03:41:08.574Z,57.00
2024-03-04T03:42:09.443Z,55.90
2024-03-04T03:43:10.354Z,57.20
2024-03-04T03:44:11.215Z,58.10
2024-03-04T03:45:12.102Z,58.10
2024-03-04T03:46:13.034Z,57.10
2024-03-04T03:47:13.861Z,57.70
2024-03-04T03:48:14.784Z,58.40
2024-03-04T03:49:15.654Z,59.10
2024-03-04T03:50:16.540Z,57.60
2024-03-04T03:51:17.411Z,63.50
2024-03-04T03:52:18.299Z,64.80
2024-03-04T03:53:19.152Z,63.70
2024-03-04T03:54:20.032Z,61.70
2024-03-04T03:55:21.001Z,63.00
2024-03-04T03:56:21.882Z,63.50
2024-03-04T03:57:22.761Z,60.80
2024-03-04T03:58:23.685Z,61.40
2024-03-04T03:59:24.514Z,61.00
2024-03-04T04:00:25.416Z,60.40
2024-03-04T04:01:26.371Z,61.40
2024-03-04T04:02:27.229Z,61.00
2024-03-04T04:03:28.112Z,62.30
2024-03-04T04:04:29.017Z,62.10
2024-03-04T04:05:29.899Z,60.90
2024-03-04T04:06:30.773Z,62.10
2024-03-04T04:07:31.703Z,62.90
2024-03-04T04:08:32.638Z,63.50
2024-03-04T04:09:33.496Z,64.70
2024-03-04T04:10:34.464Z,65.90
2024-03-04T04:11:34.892Z,66.10
2024-03-04T04:12:35.770Z,65.40
2024-03-04T04:13:36.853Z,65.30
2024-03-04T04:14:37.325Z,63.00
2024-03-04T04:15:38.225Z,62.70
2024-03-04T04:16:39.199Z,66.40
2024-03-04T04:17:39.732Z,64.50
2024-03-04T04:18:40.155Z,66.30
2024-03-04T04:19:41.065Z,64.10
2024-03-04T04:20:41.933Z,65.60
2024-03-04T04:21:42.827Z,67.80
2024-03-04T04:22:43.790Z,66.80
2024-03-04T04:23:44.644Z,65.70
2024-03-04T04:24:45.525Z,65.30
2024-03-04T04:25:46.465Z,64.90
2024-03-04T04:26:47.337Z,63.70
2024-03-04T04:27:48.185Z,63.70
2024-03-04T04:28:49.065Z,64.30
2024-03-04T04:29:49.965Z,65.40
2024-03-04T04:30:50.848Z,65.80
2024-03-04T04:31:51.733Z,64.90
2024-03-04T04:32:52.657Z,64.20
2024-03-04T04:33:53.510Z,64.30
2024-03-04T04:34:54.389Z,63.10
2024-03-04T04:35:55.287Z,61.70
2024-03-04T04:36:56.216Z,62.20
2024-03-04T04:37:57.098Z,64.80
2024-03-04T04:38:58.009Z,64.60
2024-03-04T04:39:58.869Z,63.50
2024-03-04T04:40:59.771Z,64.10
2024-03-04T04:42:00.676Z,66.10
2024-03-04T04:43:01.550Z,66.60
2024-03-04T04:44:02.393Z,66.20
2024-03-04T04:45:03.287Z,64.40
2024-03-04T04:46:04.208Z,63.00
2024-03-04T04:47:05.065Z,62.70
2024-03-04T04:48:06.015Z,65.50
2024-03-04T04:49:06.996Z,65.50
2024-03-04T04:50:07.850Z,64.90
2024-03-04T04:51:08.761Z,65.50
2024-03-04T04:52:09.665Z,65.70
2024-03-04T04:53:10.515Z,65.70
2024-03-04T04:54:11.418Z,65.80
2024-03-04T04:55:13.599Z,65.60
2024-03-04T04:56:12.914Z,65.20
2024-03-04T04:57:13.831Z,64.00
2024-03-04T04:58:14.680Z,64.60
2024-03-04T04:59:15.569Z,64.10
2024-03-04T05:00:16.472Z,68.50
2024-03-04T05:01:17.447Z,67.40
2024-03-04T05:02:17.850Z,65.80
2024-03-04T05:03:33.413Z,71.00
2024-03-04T05:04:32.211Z,69.60
2024-03-04T05:05:21.307Z,70.90
2024-03-04T05:06:21.181Z,73.30
2024-03-04T05:07:22.081Z,71.50
2024-03-04T05:08:22.941Z,70.50
2024-03-04T05:09:23.848Z,72.40
2024-03-04T05:10:24.744Z,72.40
2024-03-04T05:11:25.680Z,72.50
2024-03-04T05:12:26.531Z,71.30
2024-03-04T05:13:27.422Z,67.70
2024-03-04T05:14:28.307Z,74.40
2024-03-04T05:15:29.171Z,73.50
2024-03-04T05:16:30.164Z,74.90
2024-03-04T05:17:30.602Z,81.40
2024-03-04T05:18:31.448Z,77.70
2024-03-04T05:19:32.403Z,79.10
2024-03-04T05:20:43.222Z,79.40
2024-03-04T05:21:35.065Z,77.40
2024-03-04T05:22:35.027Z,78.70
2024-03-04T05:23:35.891Z,82.00
2024-03-04T05:24:36.785Z,83.20
2024-03-04T05:25:37.701Z,81.70
2024-03-04T05:26:38.595Z,77.30
2024-03-04T05:27:39.442Z,76.60
2024-03-04T05:28:40.390Z,79.00
2024-03-04T05:29:41.231Z,79.30
2024-03-04T05:30:42.104Z,80.10
2024-03-04T05:31:43.029Z,79.40
2024-03-04T05:32:43.913Z,80.30
2024-03-04T05:33:44.759Z,81.60
2024-03-04T05:34:45.667Z,81.90
2024-03-04T05:35:46.547Z,83.30
2024-03-04T05:36:47.447Z,84.70
2024-03-04T05:37:48.383Z,84.50
2024-03-04T05:38:49.264Z,83.00
2024-03-04T05:39:50.150Z,82.70
2024-03-04T05:40:51.024Z,82.30
2024-03-04T05:41:51.964Z,81.00
2024-03-04T05:42:53.175Z,84.00
2024-03-04T05:43:53.523Z,87.50
2024-03-04T05:44:54.402Z,84.70
2024-03-04T05:45:55.291Z,84.20
2024-03-04T05:46:56.179Z,83.80
2024-03-04T05:47:57.107Z,82.70
2024-03-04T05:48:58.036Z,81.40
2024-03-04T05:49:58.885Z,82.10
2024-03-04T05:50:59.766Z,85.20
2024-03-04T05:52:00.832Z,84.00
2024-03-04T05:53:01.205Z,86.10
2024-03-04T05:54:02.080Z,86.00
2024-03-04T05:55:03.019Z,86.40
2024-03-04T05:56:03.871Z,84.90
2024-03-04T05:57:04.793Z,82.90
2024-03-04T05:58:05.685Z,83.90
2024-03-04T05:59:06.532Z,88.10
2024-03-04T06:00:07.408Z,89.40
2024-03-04T06:01:08.370Z,87.90
2024-03-04T06:02:09.295Z,89.70
2024-03-04T06:03:10.140Z,88.80
2024-03-04T06:04:11.080Z,85.80
2024-03-04T06:05:12.005Z,86.10
2024-03-04T06:06:12.883Z,84.00
2024-03-04T06:07:13.810Z,81.70
2024-03-04T06:08:14.700Z,82.60
2024-03-04T06:09:15.578Z,81.70
2024-03-04T06:10:16.479Z,81.10
2024-03-04T06:11:17.366Z,80.20
2024-03-04T06:12:18.254Z,80.90
2024-03-04T06:13:19.155Z,81.20
2024-03-04T06:14:20.006Z,80.90
2024-03-04T06:15:20.884Z,81.80
2024-03-04T06:16:21.821Z,84.20
2024-03-04T06:17:22.706Z,84.50
2024-03-04T06:18:23.575Z,84.80
2024-03-04T06:19:24.466Z,83.20
2024-03-04T06:20:25.341Z,84.10
2024-03-04T06:21:26.228Z,83.40
2024-03-04T06:22:29.583Z,86.50
2024-03-04T06:23:27.708Z,85.20
2024-03-04T06:24:28.587Z,85.90
2024-03-04T06:25:29.489Z,85.90
2024-03-04T06:26:30.347Z,88.40
2024-03-04T06:27:31.268Z,89.90
2024-03-04T06:28:32.178Z,89.00
2024-03-04T06:29:33.004Z,89.50
2024-03-04T06:30:33.884Z,90.40
2024-03-04T06:31:34.850Z,88.60
2024-03-04T06:32:35.778Z,84.10
2024-03-04T06:33:48.016Z,86.50
2024-03-04T06:34:38.445Z,84.60
2024-03-04T06:35:38.297Z,80.40
2024-03-04T06:36:39.179Z,81.10
2024-03-04T06:37:40.144Z,81.80
2024-03-04T06:38:40.978Z,80.90
2024-03-04T06:39:41.860Z,83.10
2024-03-04T06:40:42.824Z,79.70
2024-03-04T06:41:43.713Z,78.90
2024-03-04T06:42:44.608Z,81.00
2024-03-04T06:43:45.637Z,79.40
2024-03-04T06:44:46.098Z,81.00
2024-03-04T06:45:46.972Z,82.40
2024-03-04T06:46:47.884Z,79.50
2024-03-04T06:47:48.782Z,78.80
2024-03-04T06:48:49.652Z,79.00
2024-03-04T06:49:50.542Z,79.10
2024-03-04T06:50:51.413Z,78.90
2024-03-04T06:51:52.301Z,79.50
2024-03-04T06:52:53.196Z,78.00
2024-03-04T06:53:54.086Z,77.20
2024-03-04T06:54:54.959Z,79.60
2024-03-04T06:55:55.971Z,79.10
2024-03-04T06:56:56.839Z,79.60
2024-03-04T06:57:57.762Z,74.80
2024-03-04T06:58:58.630Z,76.20
2024-03-04T06:59:59.490Z,78.30
2024-03-04T07:01:00.450Z,77.70
2024-03-04T07:02:01.409Z,80.00
2024-03-04T07:03:02.315Z,78.60
2024-03-04T07:04:03.230Z,81.30
2024-03-04T07:05:04.074Z,80.90
2024-03-04T07:06:04.949Z,79.60
2024-03-04T07:07:05.892Z,80.00
2024-03-04T07:08:06.747Z,79.80
2024-03-04T07:09:07.634Z,79.10
2024-03-04T07:10:08.554Z,86.60
2024-03-04T07:11:09.417Z,82.50
2024-03-04T07:12:10.281Z,84.30
2024-03-04T07:13:11.290Z,82.90
2024-03-04T07:14:11.660Z,85.40
2024-03-04T07:15:12.554Z,84.60
2024-03-04T07:16:13.455Z,83.30
2024-03-04T07:17:14.312Z,84.40
2024-03-04T07:18:15.302Z,83.80
2024-03-04T07:19:16.146Z,81.20
2024-03-04T07:20:17.029Z,81.10
2024-03-04T07:21:17.897Z,83.60
2024-03-04T07:22:18.806Z,86.20
2024-03-04T07:23:19.702Z,87.00
2024-03-04T07:24:20.566Z,87.60
2024-03-04T07:25:21.556Z,84.80
2024-03-04T07:26:22.439Z,85.30
2024-03-04T07:27:23.329Z,85.10
2024-03-04T07:28:24.262Z,86.20
2024-03-04T07:29:35.766Z,88.00
2024-03-04T07:30:26.875Z,86.50
2024-03-04T07:31:26.806Z,83.80
2024-03-04T07:32:27.252Z,79.30
2024-03-04T07:33:28.149Z,87.40
2024-03-04T07:34:29.036Z,92.40
2024-03-04T07:35:29.899Z,92.40
2024-03-04T07:36:30.778Z,92.40
2024-03-04T07:37:31.736Z,93.50
2024-03-04T07:38:32.610Z,90.70
2024-03-04T07:39:33.493Z,93.40
2024-03-04T07:40:34.410Z,96.30
2024-03-04T07:41:35.267Z,96.00
2024-03-04T07:42:36.145Z,90.40
2024-03-04T07:43:37.128Z,93.40
2024-03-04T07:44:38.003Z,93.50
2024-03-04T07:45:38.883Z,95.00
2024-03-04T07:46:42.544Z,92.90
2024-03-04T07:47:40.712Z,92.00
2024-03-04T07:48:41.591Z,90.30
2024-03-04T07:49:43.043Z,89.70
2024-03-04T07:50:43.429Z,91.20
2024-03-04T07:51:44.361Z,88.20
2024-03-04T07:52:45.321Z,89.60
2024-03-04T07:53:46.175Z,87.30
2024-03-04T07:54:47.072Z,86.70
2024-03-04T07:55:47.965Z,87.40
2024-03-04T07:56:48.837Z,79.50
2024-03-04T07:57:49.735Z,80.20
2024-03-04T07:58:50.726Z,79.70
2024-03-04T07:59:51.591Z,79.40
2024-03-04T08:00:52.502Z,80.10
2024-03-04T08:01:53.489Z,72.00
2024-03-04T08:02:53.909Z,72.50
2024-03-04T08:03:54.779Z,76.60
2024-03-04T08:04:55.702Z,75.60
2024-03-04T08:05:56.556Z,73.50
2024-03-04T08:06:57.421Z,74.70
2024-03-04T08:07:58.406Z,70.70
2024-03-04T08:08:59.301Z,70.10
2024-03-04T08:10:00.322Z,71.30
2024-03-04T08:11:00.810Z,69.70
2024-03-04T08:12:01.707Z,65.70
2024-03-04T08:13:02.653Z,65.40
2024-03-04T08:14:03.584Z,65.50
2024-03-04T08:15:04.437Z,67.40
2024-03-04T08:16:05.322Z,67.10
2024-03-04T08:17:06.166Z,64.50
2024-03-04T08:18:07.090Z,60.80
2024-03-04T08:19:08.020Z,63.10
2024-03-04T08:20:14.946Z,62.60
2024-03-04T08:21:10.641Z,61.10
2024-03-04T08:22:11.105Z,67.50
2024-03-04T08:23:11.567Z,63.30
2024-03-04T08:24:12.445Z,63.20
2024-03-04T08:25:14.062Z,64.90
2024-03-04T08:26:13.939Z,64.10
2024-03-04T08:27:14.826Z,63.20
2024-03-04T08:28:20.328Z,62.60
2024-03-04T08:29:19.961Z,64.50
2024-03-04T08:30:17.053Z,64.60
2024-03-04T08:31:17.950Z,62.10
2024-03-04T08:32:18.818Z,63.60
2024-03-04T08:33:19.732Z,61.30
2024-03-04T08:34:20.645Z,61.50
2024-03-04T08:35:21.487Z,59.80
2024-03-04T08:36:22.412Z,60.80
2024-03-04T08:37:23.343Z,60.20
2024-03-04T08:38:24.188Z,61.90
2024-03-04T08:39:25.077Z,62.30
2024-03-04T08:40:25.998Z,63.70
2024-03-04T08:41:26.897Z,62.60
2024-03-04T08:42:27.765Z,61.30
2024-03-04T08:43:28.680Z,61.20
2024-03-04T08:44:29.535Z,61.10
2024-03-04T08:45:30.424Z,60.90
2024-03-04T08:46:31.346Z,60.40
2024-03-04T08:47:32.201Z,58.30
2024-03-04T08:48:33.090Z,60.20
2024-03-04T08:49:33.981Z,58.30
2024-03-04T08:50:34.853Z,60.30
2024-03-04T08:51:35.747Z,56.10
2024-03-04T08:52:36.690Z,57.00
2024-03-04T08:53:37.538Z,55.00
2024-03-04T08:54:38.421Z,55.90
2024-03-04T08:55:39.344Z,56.90
2024-03-04T08:56:42.290Z,55.80
2024-03-04T08:57:40.916Z,55.20
2024-03-04T08:58:41.828Z,55.90
2024-03-04T08:59:42.718Z,56.20
2024-03-04T09:00:43.630Z,53.80
2024-03-04T09:01:44.630Z,53.80
2024-03-04T09:02:45.007Z,53.40
2024-03-04T09:03:45.887Z,53.10
2024-03-04T09:04:46.955Z,54.80
2024-03-04T09:05:47.557Z,52.20
2024-03-04T09:06:48.516Z,51.10
2024-03-04T09:07:49.377Z,51.90
2024-03-04T09:08:50.255Z,51.60
2024-03-04T09:09:51.136Z,52.10
2024-03-04T09:10:52.068Z,53.80
2024-03-04T09:11:53.059Z,52.30
2024-03-04T09:12:53.918Z,53.70
2024-03-04T09:13:54.821Z,53.00
2024-03-04T09:14:55.739Z,53.70
2024-03-04T09:15:56.595Z,53.20
2024-03-04T09:16:57.497Z,52.80
2024-03-04T09:17:58.405Z,54.50
2024-03-04T09:18:59.286Z,53.30
2024-03-04T09:20:00.430Z,52.70
2024-03-04T09:21:00.794Z,50.30
2024-03-04T09:22:01.722Z,51.80
2024-03-04T09:23:02.586Z,52.10
2024-03-04T09:24:03.492Z,51.70
2024-03-04T09:25:04.461Z,50.80
2024-03-04T09:26:05.306Z,52.30
2024-03-04T09:27:06.206Z,53.30
2024-03-04T09:28:07.121Z,51.40
2024-03-04T09:29:07.984Z,50.20
2024-03-04T09:30:08.878Z,50.30
2024-03-04T09:31:09.766Z,49.20
2024-03-04T09:32:10.636Z,50.10
2024-03-04T09:33:11.524Z,49.10
2024-03-04T09:34:12.411Z,49.60
2024-03-04T09:35:13.277Z,48.60
2024-03-04T09:36:14.189Z,48.20
2024-03-04T09:37:15.106Z,47.30
2024-03-04T09:38:15.972Z,48.90
2024-03-04T09:39:16.864Z,47.10
2024-03-04T09:40:17.826Z,47.50
2024-03-04T09:41:18.741Z,48.00
2024-03-04T09:42:19.634Z,46.50
2024-03-04T09:43:20.556Z,47.40
2024-03-04T09:44:21.397Z,45.60
2024-03-04T09:45:22.308Z,47.40
2024-03-04T09:46:23.176Z,45.90
2024-03-04T09:47:24.090Z,47.10
2024-03-04T09:48:24.952Z,46.30
2024-03-04T09:49:25.826Z,46.40
2024-03-04T09:50:26.695Z,46.40
2024-03-04T09:51:27.578Z,46.30
2024-03-04T09:52:28.576Z,45.70
2024-03-04T09:53:29.441Z,46.70
2024-03-04T09:54:30.003Z,46.50
2024-03-04T09:55:30.892Z,47.10
2024-03-04T09:56:31.768Z,48.00
2024-03-04T09:57:32.660Z,47.90
2024-03-04T09:58:33.658Z,48.60
2024-03-04T09:59:34.078Z,47.60
2024-03-04T10:00:34.977Z,46.00
2024-03-04T10:01:35.905Z,47.50
2024-03-04T10:02:36.805Z,46.50
2024-03-04T10:03:37.682Z,47.10
2024-03-04T10:04:38.355Z,47.50
2024-03-04T10:05:39.208Z,47.10
2024-03-04T10:06:40.093Z,47.90
2024-03-04T10:07:41.043Z,48.10
2024-03-04T10:08:41.896Z,48.60
2024-03-04T10:09:42.775Z,48.10
2024-03-04T10:10:43.739Z,46.30
2024-03-04T10:11:44.759Z,46.60
2024-03-04T10:12:45.417Z,47.30
2024-03-04T10:13:46.391Z,46.20
2024-03-04T10:14:47.251Z,45.60
2024-03-04T10:15:48.155Z,45.50
2024-03-04T10:16:49.072Z,46.00
2024-03-04T10:17:49.994Z,46.50
2024-03-04T10:18:50.845Z,46.90
2024-03-04T10:19:51.784Z,46.90
2024-03-04T10:20:52.652Z,46.80
2024-03-04T10:21:53.532Z,46.50
2024-03-04T10:22:54.435Z,46.20
2024-03-04T10:23:55.316Z,45.50
2024-03-04T10:24:57.563Z,45.10
2024-03-04T10:25:57.116Z,44.40
2024-03-04T10:26:57.964Z,43.50
2024-03-04T10:27:58.872Z,43.90
2024-03-04T10:28:59.746Z,44.20
2024-03-04T10:30:00.623Z,43.00
2024-03-04T10:31:01.601Z,43.00
2024-03-04T10:32:02.516Z,42.30
2024-03-04T10:33:03.412Z,39.80
2024-03-04T10:34:04.318Z,40.10
2024-03-04T10:35:05.170Z,39.60
2024-03-04T10:36:06.044Z,39.10
2024-03-04T10:37:06.947Z,39.10
2024-03-04T10:38:07.847Z,38.20
2024-03-04T10:39:08.702Z,40.20
2024-03-04T10:40:09.628Z,39.80
2024-03-04T10:41:10.500Z,39.70
2024-03-04T10:42:11.372Z,39.80
2024-03-04T10:43:12.293Z,38.50
2024-03-04T10:44:13.151Z,38.40
2024-03-04T10:45:14.062Z,39.30
2024-03-04T10:46:14.975Z,38.40
2024-03-04T10:47:15.861Z,38.00
2024-03-04T10:48:16.788Z,37.10
2024-03-04T10:49:17.674Z,39.10
2024-03-04T10:50:18.530Z,36.50
2024-03-04T10:51:19.445Z,35.00
2024-03-04T10:52:20.333Z,32.70
2024-03-04T10:53:21.212Z,33.90
2024-03-04T10:54:22.092Z,33.80
2024-03-04T10:55:22.984Z,34.80
2024-03-04T10:56:23.865Z,34.20
2024-03-04T10:57:24.888Z,35.00
2024-03-04T10:58:25.357Z,34.40
2024-03-04T10:59:26.219Z,33.00
2024-03-04T11:00:27.718Z,33.90
2024-03-04T11:01:27.872Z,33.00
2024-03-04T11:02:28.739Z,33.00
2024-03-04T11:03:29.642Z,32.80
2024-03-04T11:04:30.542Z,32.90
2024-03-04T11:05:31.403Z,32.70
2024-03-04T11:06:32.293Z,32.70
2024-03-04T11:07:33.277Z,32.40
2024-03-04T11:08:34.184Z,31.40
2024-03-04T11:09:35.055Z,31.70
2024-03-04T11:10:35.959Z,31.90
2024-03-04T11:11:36.882Z,32.80
2024-03-04T11:12:37.727Z,33.10
2024-03-04T11:13:38.669Z,33.30
2024-03-04T11:14:39.518Z,33.70
2024-03-04T11:15:40.399Z,33.40
2024-03-04T11:16:43.938Z,33.50
2024-03-04T11:17:42.197Z,33.50
2024-03-04T11:18:43.084Z,32.50
2024-03-04T11:19:44.071Z,33.10
2024-03-04T11:20:44.436Z,33.40
2024-03-04T11:21:45.319Z,34.00
2024-03-04T11:22:47.002Z,35.30
2024-03-04T11:23:46.938Z,33.40
2024-03-04T11:24:47.807Z,34.70
2024-03-04T11:25:48.824Z,35.20
2024-03-04T11:26:49.258Z,34.70
2024-03-04T11:27:50.170Z,33.60
2024-03-04T11:28:51.159Z,34.20
2024-03-04T11:29:51.519Z,36.90
2024-03-04T11:30:52.405Z,36.10
2024-03-04T11:31:53.339Z,35.70
2024-03-04T11:32:54.232Z,36.40
2024-03-04T11:33:55.107Z,36.90
2024-03-04T11:34:56.129Z,36.20
2024-03-04T11:35:56.678Z,35.10
2024-03-04T11:36:57.558Z,35.50
2024-03-04T11:37:58.435Z,35.50
2024-03-04T11:38:59.330Z,36.60
2024-03-04T11:40:00.210Z,36.00
2024-03-04T11:41:01.095Z,36.10
2024-03-04T11:42:01.977Z,35.80
2024-03-04T11:43:02.961Z,35.20
2024-03-04T11:44:03.842Z,35.20
2024-03-04T11:45:04.724Z,36.50
2024-03-04T11:46:05.655Z,36.40
2024-03-04T11:47:06.511Z,36.30
2024-03-04T11:48:07.386Z,36.50
2024-03-04T11:49:08.328Z,36.70
2024-03-04T11:50:09.219Z,36.60
2024-03-04T11:51:10.061Z,36.60
2024-03-04T11:52:10.977Z,36.60
2024-03-04T11:53:11.854Z,36.10
2024-03-04T11:54:12.747Z,35.90
2024-03-04T11:55:13.652Z,37.50
2024-03-04T11:56:14.508Z,37.10
2024-03-04T11:57:15.390Z,36.50
2024-03-04T11:58:16.292Z,37.70
2024-03-04T11:59:17.169Z,38.50
2024-03-04T12:00:18.075Z,35.90
2024-03-04T12:01:22.556Z,36.10
2024-03-04T12:02:19.699Z,34.20
2024-03-04T12:03:20.087Z,35.90
2024-03-04T12:04:21.026Z,34.30
2024-03-04T12:05:21.868Z,34.70
2024-03-04T12:06:22.756Z,34.60
2024-03-04T12:07:24.731Z,35.30
2024-03-04T12:08:40.399Z,34.70
2024-03-04T12:09:44.487Z,35.50
2024-03-04T12:10:26.897Z,34.60
2024-03-04T12:11:26.825Z,34.90
2024-03-04T12:12:27.302Z,33.40
2024-03-04T12:13:28.205Z,34.40
2024-03-04T12:14:29.104Z,35.50
2024-03-04T12:15:29.996Z,35.10
2024-03-04T12:16:30.918Z,34.80
2024-03-04T12:17:31.823Z,34.10
2024-03-04T12:18:32.679Z,33.50
2024-03-04T12:19:33.608Z,34.40
2024-03-04T12:20:34.453Z,33.90
2024-03-04T12:21:35.331Z,34.50
2024-03-04T12:22:36.343Z,33.50
2024-03-04T12:23:36.753Z,34.30
2024-03-04T12:24:38.735Z,34.30
2024-03-04T12:25:38.213Z,34.90
2024-03-04T12:26:39.099Z,35.90
2024-03-04T12:27:39.965Z,36.00
2024-03-04T12:28:40.872Z,35.10
2024-03-04T12:29:41.739Z,34.60
2024-03-04T12:30:42.622Z,35.40
2024-03-04T12:31:43.644Z,35.90
2024-03-04T12:32:44.186Z,35.70
2024-03-04T12:33:44.580Z,35.50
2024-03-04T12:34:45.487Z,34.90
2024-03-04T12:35:46.350Z,34.90
2024-03-04T12:36:47.224Z,36.50
2024-03-04T12:37:48.180Z,36.20
2024-03-04T12:38:49.043Z,35.30
2024-03-04T12:39:49.926Z,35.60
2024-03-04T12:40:50.898Z,35.90
2024-03-04T12:41:51.767Z,35.70
2024-03-04T12:42:52.635Z,35.30
2024-03-04T12:43:53.520Z,35.20
2024-03-04T12:44:54.420Z,35.00
2024-03-04T12:45:55.303Z,34.20
2024-03-04T12:46:56.194Z,34.60
2024-03-04T12:47:57.395Z,34.30
2024-03-04T12:48:57.827Z,34.30
2024-03-04T12:49:58.732Z,35.20
2024-03-04T12:50:59.576Z,34.70
2024-03-04T12:52:00.464Z,34.40
2024-03-04T12:53:01.351Z,35.30
2024-03-04T12:54:02.238Z,35.50
2024-03-04T12:55:03.301Z,35.60
2024-03-04T12:56:03.697Z,36.20
2024-03-04T12:57:04.557Z,35.20
2024-03-04T12:58:05.469Z,34.80
2024-03-04T12:59:06.337Z,34.50
2024-03-04T13:00:10.162Z,36.50
2024-03-04T13:01:07.746Z,34.30
2024-03-04T13:02:09.621Z,35.10
2024-03-04T13:03:09.491Z,35.30
2024-03-04T13:04:10.401Z,35.60
2024-03-04T13:05:11.341Z,36.10
2024-03-04T13:06:12.237Z,35.80
2024-03-04T13:07:13.134Z,34.40